Time;durP1;ratioP1;P1;durP2;ratioP2;P2;SDS_P1;SDS_P2;PMS_P1;PMS_P2;Temp;Humidity;BMP_temperature;BMP_pressure;BME280_temperature;BME280_humidity;BME280_pressure;Samples;Min_cycle;Max_cycle;Signal;HPM_P1;HPM_P2
2022/06/23 00:02:25;;;;;;;4.18;3.72;;;14.30;99.90;;;;;;4994457;28;20417;-63
2022/06/23 00:04:54;;;;;;;4.40;3.28;;;14.20;99.90;;;;;;4994940;28;20146;-63
2022/06/23 00:07:27;;;;;;;4.78;3.78;;;14.40;99.90;;;;;;4994126;28;20049;-63
2022/06/23 00:10:01;;;;;;;5.47;3.75;;;14.40;99.90;;;;;;4996242;28;20045;-63
2022/06/23 00:12:31;;;;;;;9.00;5.40;;;14.30;99.90;;;;;;4994085;28;20038;-63
2022/06/23 00:15:03;;;;;;;9.43;4.03;;;14.40;99.90;;;;;;4988671;28;20401;-63
2022/06/23 00:17:48;;;;;;;9.15;4.47;;;14.40;99.90;;;;;;4991107;28;20101;-63
2022/06/23 00:20:14;;;;;;;6.82;5.10;;;14.30;99.90;;;;;;4986041;28;20043;-63
2022/06/23 00:22:44;;;;;;;8.02;4.30;;;14.20;99.90;;;;;;4993269;28;20045;-62
2022/06/23 00:25:23;;;;;;;7.07;4.70;;;14.10;99.90;;;;;;4974684;28;20099;-63
2022/06/23 00:27:48;;;;;;;5.95;4.93;;;14.10;99.90;;;;;;4993207;28;20049;-63
2022/06/23 00:30:22;;;;;;;7.95;4.25;;;14.00;99.90;;;;;;4995326;28;20039;-63
2022/06/23 00:32:48;;;;;;;9.63;4.67;;;14.20;99.90;;;;;;4995221;28;20045;-63
2022/06/23 00:35:16;;;;;;;8.70;5.18;;;14.20;99.90;;;;;;4994286;28;20042;-63
2022/06/23 00:37:49;;;;;;;9.50;5.22;;;14.10;99.90;;;;;;4990767;28;20089;-63
2022/06/23 00:40:17;;;;;;;7.38;5.20;;;14.20;99.90;;;;;;4989973;28;20030;-63
2022/06/23 00:43:03;;;;;;;5.55;4.57;;;14.10;99.90;;;;;;4994959;28;20038;-63
2022/06/23 00:45:55;;;;;;;5.97;4.53;;;14.10;99.90;;;;;;4993337;28;20401;-63
2022/06/23 00:48:34;;;;;;;7.68;5.43;;;14.10;99.90;;;;;;4973046;28;20444;-63
2022/06/23 00:51:14;;;;;;;5.93;4.55;;;14.30;99.90;;;;;;4977435;28;20038;-63
2022/06/23 00:53:53;;;;;;;7.63;4.80;;;14.10;99.90;;;;;;4994647;28;20050;-63
2022/06/23 00:56:40;;;;;;;6.45;5.03;;;14.00;99.90;;;;;;4989936;28;20043;-63
2022/06/23 00:59:29;;;;;;;7.82;5.07;;;14.00;99.90;;;;;;4988158;28;20042;-63
2022/06/23 01:02:07;;;;;;;7.70;4.88;;;14.00;99.90;;;;;;5001219;28;20042;-63
2022/06/23 01:04:58;;;;;;;7.65;5.03;;;14.10;99.90;;;;;;5016177;28;20029;-63
2022/06/23 01:07:37;;;;;;;9.32;5.63;;;14.00;99.90;;;;;;5033957;28;20091;-63
2022/06/23 01:10:32;;;;;;;7.40;5.22;;;14.00;99.90;;;;;;5016002;28;20116;-62
2022/06/23 01:13:20;;;;;;;9.13;5.40;;;14.10;99.90;;;;;;5015645;28;20046;-62
2022/06/23 01:15:52;;;;;;;8.82;5.00;;;13.90;99.90;;;;;;5023286;28;20049;-62
2022/06/23 01:18:23;;;;;;;7.40;5.13;;;13.90;99.90;;;;;;4999631;28;20076;-62
2022/06/23 01:20:51;;;;;;;8.20;5.30;;;13.80;99.90;;;;;;5016026;28;20068;-62
2022/06/23 01:23:34;;;;;;;6.57;5.18;;;13.90;99.90;;;;;;5015722;28;20045;-62
2022/06/23 01:26:20;;;;;;;8.30;4.95;;;14.00;99.90;;;;;;5033405;28;20120;-62
2022/06/23 01:28:47;;;;;;;7.85;5.68;;;13.90;99.90;;;;;;5015847;28;20099;-62
2022/06/23 01:31:19;;;;;;;9.85;6.22;;;13.90;99.90;;;;;;5016133;28;20073;-62
2022/06/23 01:34:04;;;;;;;9.48;5.88;;;13.90;99.90;;;;;;5015793;28;20045;-62
2022/06/23 01:36:38;;;;;;;8.32;5.57;;;13.80;99.90;;;;;;5015764;28;20049;-62
2022/06/23 01:39:12;;;;;;;8.88;5.32;;;13.80;99.90;;;;;;4999139;28;20045;-62
2022/06/23 01:41:48;;;;;;;10.77;5.80;;;13.70;99.90;;;;;;4999555;28;20104;-63
2022/06/23 01:44:14;;;;;;;11.18;6.63;;;13.90;99.90;;;;;;5033238;28;20044;-63
2022/06/23 01:46:42;;;;;;;10.20;5.72;;;13.80;99.90;;;;;;5032783;28;20033;-62
2022/06/23 01:49:26;;;;;;;7.82;5.55;;;13.90;99.90;;;;;;5001727;28;20040;-62
2022/06/23 01:51:54;;;;;;;7.40;5.03;;;13.80;99.90;;;;;;5033055;28;20120;-62
2022/06/23 01:54:20;;;;;;;8.10;5.85;;;;;;;;;;5015510;28;20041;-62
2022/06/23 01:57:19;;;;;;;10.00;5.63;;;13.60;99.90;;;;;;4998792;28;20056;-62
2022/06/23 02:00:22;;;;;;;9.95;6.05;;;13.70;99.90;;;;;;4998888;28;20045;-63
2022/06/23 02:02:53;;;;;;;9.60;6.45;;;13.60;99.90;;;;;;4990882;28;20607;-62
2022/06/23 02:05:38;;;;;;;7.63;5.40;;;13.60;99.90;;;;;;5002445;28;20388;-63
2022/06/23 02:08:29;;;;;;;9.57;6.45;;;13.70;99.90;;;;;;5014610;28;20045;-62
2022/06/23 02:11:22;;;;;;;10.15;5.93;;;13.70;99.90;;;;;;5014360;28;20042;-63
2022/06/23 02:14:05;;;;;;;6.97;5.88;;;13.70;99.90;;;;;;4998980;28;20037;-62
2022/06/23 02:16:41;;;;;;;9.52;6.18;;;13.60;99.90;;;;;;5014599;28;20478;-62
2022/06/23 02:19:34;;;;;;;10.15;6.38;;;13.50;99.90;;;;;;5015281;28;20393;-62
2022/06/23 02:22:31;;;;;;;7.70;5.57;;;13.50;99.90;;;;;;5002559;28;20069;-62
2022/06/23 02:25:03;;;;;;;10.02;5.18;;;13.60;99.90;;;;;;5011436;28;20492;-62
2022/06/23 02:27:41;;;;;;;8.75;5.63;;;13.70;99.90;;;;;;5006058;28;20068;-62
2022/06/23 02:30:09;;;;;;;8.32;6.35;;;13.50;99.90;;;;;;4998146;28;20068;-62
2022/06/23 02:32:57;;;;;;;7.28;5.50;;;13.60;99.90;;;;;;5014751;28;20143;-63
2022/06/23 02:35:59;;;;;;;7.20;5.50;;;13.40;99.90;;;;;;5032357;28;20434;-62
2022/06/23 02:38:37;;;;;;;8.30;6.05;;;13.40;99.90;;;;;;5014448;28;20049;-62
2022/06/23 02:41:22;;;;;;;7.15;5.63;;;13.50;99.90;;;;;;5014590;28;20042;-63
2022/06/23 02:43:52;;;;;;;8.18;5.80;;;13.50;99.90;;;;;;5032021;28;20107;-66
2022/06/23 02:46:51;;;;;;;10.15;5.35;;;13.50;99.90;;;;;;5032047;28;20091;-62
2022/06/23 02:49:39;;;;;;;8.05;6.28;;;13.70;99.90;;;;;;4997512;28;20193;-62
2022/06/23 02:52:07;;;;;;;10.10;6.22;;;13.40;99.90;;;;;;5025431;28;20046;-62
2022/06/23 02:54:41;;;;;;;9.27;6.30;;;13.20;99.90;;;;;;5014520;28;20120;-63
2022/06/23 02:57:31;;;;;;;8.82;6.32;;;13.40;99.90;;;;;;5014233;28;20049;-63
2022/06/23 03:00:07;;;;;;;8.65;6.20;;;13.50;99.90;;;;;;5014712;28;20064;-63
2022/06/23 03:02:48;;;;;;;8.73;6.50;;;13.30;99.90;;;;;;5013965;28;20053;-62
2022/06/23 03:05:46;;;;;;;7.95;6.15;;;13.40;99.90;;;;;;5014456;28;20127;-62
2022/06/23 03:08:38;;;;;;;10.50;6.70;;;13.40;99.90;;;;;;5018492;28;20498;-62
2022/06/23 03:11:16;;;;;;;10.50;6.95;;;13.40;99.90;;;;;;5014592;28;20053;-62
2022/06/23 03:13:54;;;;;;;10.70;7.78;;;13.30;99.90;;;;;;5014447;28;20045;-62
2022/06/23 03:16:36;;;;;;;8.82;7.10;;;13.30;99.90;;;;;;5014418;28;20539;-63
2022/06/23 03:19:05;;;;;;;9.35;6.78;;;13.40;99.90;;;;;;5017721;28;20048;-62
2022/06/23 03:21:43;;;;;;;10.88;6.38;;;13.30;99.90;;;;;;5018027;28;20045;-62
2022/06/23 03:24:23;;;;;;;7.85;5.47;;;13.30;99.90;;;;;;5001791;28;20092;-63
2022/06/23 03:27:06;;;;;;;7.45;5.45;;;13.30;99.90;;;;;;5017893;28;20045;-62
2022/06/23 03:29:34;;;;;;;5.38;4.35;;;13.50;99.90;;;;;;5018278;28;20455;-62
2022/06/23 03:32:19;;;;;;;8.18;5.15;;;13.30;99.90;;;;;;5017844;28;20045;-62
2022/06/23 03:34:54;;;;;;;8.32;5.75;;;13.30;99.90;;;;;;5001484;28;20033;-62
2022/06/23 03:37:47;;;;;;;7.22;5.93;;;13.20;99.90;;;;;;5001584;28;20045;-63
2022/06/23 03:43:28;;;;;;;8.32;6.20;;;;;;;;;;5035513;28;20054;-62
2022/06/23 03:46:31;;;;;;;9.90;6.57;;;13.30;99.90;;;;;;5017613;28;20116;-62
2022/06/23 03:49:13;;;;;;;8.00;5.68;;;13.20;99.90;;;;;;5021295;28;20056;-62
2022/06/23 03:51:47;;;;;;;9.82;6.43;;;13.10;99.90;;;;;;5017805;28;20041;-62
2022/06/23 03:54:16;;;;;;;10.32;6.88;;;13.20;99.90;;;;;;5001089;28;20049;-62
2022/06/23 03:56:49;;;;;;;11.25;6.47;;;13.20;99.90;;;;;;5014192;28;20099;-62
2022/06/23 03:59:20;;;;;;;9.77;6.57;;;13.10;99.90;;;;;;5031690;28;20126;-62
2022/06/23 04:01:57;;;;;;;9.43;6.88;;;13.10;99.90;;;;;;5013907;28;20411;-63
2022/06/23 04:04:42;;;;;;;9.38;7.25;;;13.10;99.90;;;;;;5016411;28;20038;-62
2022/06/23 04:07:42;;;;;;;8.52;6.88;;;13.30;99.90;;;;;;5016538;28;20668;-62
2022/06/23 04:10:39;;;;;;;9.57;6.80;;;13.20;99.90;;;;;;5013918;28;20048;-62
2022/06/23 04:13:36;;;;;;;11.15;7.35;;;13.20;99.90;;;;;;5031903;28;20484;-62
2022/06/23 04:16:08;;;;;;;10.38;7.38;;;13.10;99.90;;;;;;5034694;28;20034;-62
2022/06/23 04:18:39;;;;;;;14.05;8.20;;;13.20;99.90;;;;;;5000546;28;20037;-62
2022/06/23 04:21:28;;;;;;;12.23;7.85;;;13.30;99.90;;;;;;5034611;28;20045;-62
2022/06/23 04:23:58;;;;;;;12.90;8.38;;;13.30;99.90;;;;;;5034946;28;20064;-62
2022/06/23 04:26:41;;;;;;;12.07;8.23;;;13.20;99.90;;;;;;5017118;28;20041;-62
2022/06/23 04:29:09;;;;;;;14.50;9.13;;;13.40;99.90;;;;;;5031026;28;20396;-63
2022/06/23 04:31:38;;;;;;;14.07;8.70;;;13.40;99.90;;;;;;5012894;28;20091;-63
2022/06/23 04:34:04;;;;;;;12.98;8.35;;;13.40;99.90;;;;;;5015506;28;20508;-63
2022/06/23 04:36:32;;;;;;;14.05;9.40;;;13.50;99.90;;;;;;4997769;28;20088;-63
2022/06/23 04:39:01;;;;;;;11.77;8.80;;;13.60;99.90;;;;;;5015473;28;20041;-63
2022/06/23 04:41:29;;;;;;;13.60;8.70;;;13.70;99.90;;;;;;5024607;28;20057;-63
2022/06/23 04:44:01;;;;;;;14.10;9.07;;;14.00;99.90;;;;;;5017703;28;20053;-63
2022/06/23 04:46:31;;;;;;;11.55;7.85;;;13.70;99.90;;;;;;5018453;28;20108;-62
2022/06/23 04:49:03;;;;;;;12.88;8.82;;;13.90;99.90;;;;;;5020883;28;20044;-63
2022/06/23 04:51:35;;;;;;;12.73;8.55;;;14.10;99.90;;;;;;5015954;28;20368;-63
2022/06/23 04:54:09;;;;;;;18.13;8.90;;;14.10;99.90;;;;;;4997863;28;20522;-63
2022/06/23 04:56:38;;;;;;;14.98;9.45;;;14.30;99.90;;;;;;5006071;28;20038;-62
2022/06/23 04:59:40;;;;;;;14.93;8.63;;;14.60;99.90;;;;;;5009147;28;20491;-62
2022/06/23 05:02:36;;;;;;;12.57;7.68;;;14.90;99.90;;;;;;5026580;28;20057;-63
2022/06/23 05:05:16;;;;;;;12.07;7.68;;;15.30;99.90;;;;;;5014347;28;20480;-62
2022/06/23 05:07:59;;;;;;;11.63;8.02;;;15.50;99.90;;;;;;4999991;28;20466;-62
2022/06/23 05:10:32;;;;;;;10.20;7.88;;;15.90;99.90;;;;;;5005997;28;20041;-62
2022/06/23 05:13:09;;;;;;;8.88;6.68;;;16.40;99.90;;;;;;5010865;28;20049;-62
2022/06/23 05:15:42;;;;;;;9.80;6.53;;;16.30;99.90;;;;;;4983415;28;20052;-62
2022/06/23 05:18:17;;;;;;;9.75;7.07;;;16.90;99.90;;;;;;5000389;28;20053;-62
2022/06/23 05:20:48;;;;;;;11.80;6.90;;;17.20;99.90;;;;;;5020398;28;20049;-62
2022/06/23 05:23:19;;;;;;;9.32;7.00;;;17.00;99.90;;;;;;5025956;28;20538;-62
2022/06/23 05:25:48;;;;;;;9.95;7.18;;;17.00;99.90;;;;;;5013913;28;20091;-62
2022/06/23 05:28:23;;;;;;;11.50;7.13;;;17.00;99.90;;;;;;5015096;28;20121;-62
2022/06/23 05:30:53;;;;;;;10.02;7.03;;;16.90;99.90;;;;;;5027142;28;20037;-62
2022/06/23 05:33:26;;;;;;;13.07;7.00;;;16.80;99.90;;;;;;5013777;28;20060;-62
2022/06/23 05:35:57;;;;;;;11.55;7.50;;;16.80;99.90;;;;;;5012908;28;20401;-62
2022/06/23 05:38:30;;;;;;;9.55;7.20;;;16.70;99.90;;;;;;4995115;28;20534;-63
2022/06/23 05:41:02;;;;;;;9.65;7.38;;;16.70;99.90;;;;;;5014374;28;20108;-63
2022/06/23 05:43:30;;;;;;;12.10;7.28;;;16.90;99.90;;;;;;5010179;28;20092;-63
2022/06/23 05:46:00;;;;;;;8.30;6.63;;;16.80;99.90;;;;;;5007388;28;20092;-63
2022/06/23 05:48:41;;;;;;;9.68;7.03;;;17.30;99.90;;;;;;5007454;28;20458;-63
2022/06/23 05:51:10;;;;;;;10.68;6.45;;;17.50;99.90;;;;;;5013115;28;20048;-63
2022/06/23 05:53:45;;;;;;;10.73;6.25;;;17.40;99.90;;;;;;4995845;28;20038;-60
2022/06/23 05:56:17;;;;;;;11.38;7.10;;;17.40;99.90;;;;;;5013133;28;20040;-62
2022/06/23 05:58:46;;;;;;;8.65;6.40;;;17.90;99.90;;;;;;4994914;28;20050;-61
2022/06/23 06:01:24;;;;;;;9.57;6.70;;;18.10;99.90;;;;;;5015895;28;20133;-59
2022/06/23 06:03:56;;;;;;;8.45;6.43;;;18.20;99.90;;;;;;5021692;28;20059;-61
2022/06/23 06:06:21;;;;;;;10.00;6.65;;;18.70;99.90;;;;;;5005026;28;20049;-62
2022/06/23 06:11:43;;;;;;;9.90;6.18;;;19.20;99.90;;;;;;5027478;28;20046;-62
2022/06/23 06:14:12;;;;;;;8.82;6.72;;;19.30;99.90;;;;;;5015573;28;20045;-62
2022/06/23 06:16:38;;;;;;;11.43;6.40;;;19.30;99.90;;;;;;5020428;28;20034;-62
2022/06/23 06:19:04;;;;;;;8.45;5.90;;;19.30;99.90;;;;;;5015096;28;20034;-63
2022/06/23 06:21:30;;;;;;;7.75;5.70;;;19.00;99.90;;;;;;5009716;28;20037;-61
2022/06/23 06:24:20;;;;;;;10.60;6.35;;;19.30;99.90;;;;;;5010159;28;20060;-63
2022/06/23 06:26:50;;;;;;;8.25;5.60;;;19.30;99.90;;;;;;5008269;28;20415;-62
2022/06/23 06:29:32;;;;;;;9.35;5.82;;;19.60;99.90;;;;;;4991518;28;20065;-62
2022/06/23 06:32:11;;;;;;;8.80;5.57;;;19.90;99.90;;;;;;5008737;28;20041;-63
2022/06/23 06:34:41;;;;;;;8.77;5.38;;;19.90;99.90;;;;;;5008801;28;20053;-62
2022/06/23 06:37:11;;;;;;;11.15;5.78;;;20.30;99.90;;;;;;4990151;28;20626;-62
2022/06/23 06:39:45;;;;;;;9.68;5.82;;;20.10;99.90;;;;;;5008113;28;20072;-63
2022/06/23 06:42:26;;;;;;;9.48;5.95;;;20.10;99.90;;;;;;4989716;28;20053;-62
2022/06/23 06:44:55;;;;;;;7.32;5.30;;;19.80;99.90;;;;;;5008768;28;20054;-63
2022/06/23 06:47:25;;;;;;;8.00;5.22;;;19.90;99.90;;;;;;5007016;28;20045;-62
2022/06/23 06:49:58;;;;;;;8.65;5.53;;;19.80;99.90;;;;;;5006499;28;20087;-62
2022/06/23 06:52:25;;;;;;;8.70;5.68;;;19.70;99.90;;;;;;5008892;28;20566;-62
2022/06/23 06:55:01;;;;;;;7.80;5.70;;;20.00;99.90;;;;;;5012539;28;20055;-62
2022/06/23 06:57:36;;;;;;;10.38;5.82;;;20.20;99.90;;;;;;4994743;28;20046;-62
2022/06/23 07:00:07;;;;;;;9.82;5.47;;;20.00;99.90;;;;;;5011808;28;20128;-63
2022/06/23 07:02:42;;;;;;;8.55;5.47;;;20.10;99.90;;;;;;5011670;28;20119;-62
2022/06/23 07:05:29;;;;;;;11.10;4.82;;;20.20;99.90;;;;;;4994141;28;20051;-62
2022/06/23 07:08:33;;;;;;;6.88;4.95;;;20.50;99.90;;;;;;5011647;28;20101;-62
2022/06/23 07:11:07;;;;;;;6.35;4.80;;;20.40;99.90;;;;;;4993093;28;20144;-62
2022/06/23 07:13:54;;;;;;;6.60;4.57;;;20.50;99.90;;;;;;4997041;28;20096;-61
2022/06/23 07:16:30;;;;;;;10.68;4.18;;;20.70;99.90;;;;;;5012720;28;20060;-62
2022/06/23 07:19:26;;;;;;;5.55;4.75;;;20.60;99.90;;;;;;5013110;28;20068;-61
2022/06/23 07:22:02;;;;;;;9.00;4.38;;;20.80;99.90;;;;;;4994899;28;20072;-62
2022/06/23 07:24:34;;;;;;;8.60;5.05;;;20.20;99.90;;;;;;4994952;28;20127;-62
2022/06/23 07:27:07;;;;;;;9.88;5.03;;;20.70;99.90;;;;;;5011756;28;20133;-63
2022/06/23 07:29:51;;;;;;;7.45;4.60;;;21.00;99.90;;;;;;5010477;28;20049;-63
2022/06/23 07:32:36;;;;;;;10.15;4.82;;;21.00;99.90;;;;;;5010283;28;20477;-63
2022/06/23 07:35:22;;;;;;;6.00;4.03;;;21.30;99.90;;;;;;5009149;28;20132;-62
2022/06/23 07:38:07;;;;;;;6.78;4.20;;;20.90;99.90;;;;;;4994202;28;20053;-62
2022/06/23 07:40:59;;;;;;;6.25;4.28;;;21.10;99.90;;;;;;4991969;28;20412;-62
2022/06/23 07:43:39;;;;;;;10.00;4.28;;;21.30;99.90;;;;;;5011285;28;20049;-63
2022/06/23 07:46:05;;;;;;;8.65;4.20;;;21.30;99.90;;;;;;5012263;28;20033;-62
2022/06/23 07:48:34;;;;;;;7.72;4.85;;;21.30;99.90;;;;;;4995686;28;21590;-62
2022/06/23 07:51:02;;;;;;;10.90;4.00;;;22.00;99.90;;;;;;4993549;28;20045;-63
2022/06/23 07:53:34;;;;;;;5.57;4.53;;;21.80;99.90;;;;;;5011564;28;20191;-62
2022/06/23 07:56:00;;;;;;;8.27;3.85;;;21.80;99.90;;;;;;5010841;28;20052;-62
2022/06/23 07:58:30;;;;;;;7.07;4.18;;;21.80;99.90;;;;;;4993528;28;20049;-62
2022/06/23 08:01:06;;;;;;;8.43;3.22;;;21.90;99.90;;;;;;5010546;28;20072;-63
2022/06/23 08:03:38;;;;;;;4.50;3.10;;;21.80;99.90;;;;;;4992997;28;20060;-62
2022/06/23 08:06:09;;;;;;;7.57;3.45;;;21.90;99.90;;;;;;5010087;28;20046;-61
2022/06/23 08:08:38;;;;;;;6.60;3.17;;;22.00;99.90;;;;;;4994976;28;20049;-63
2022/06/23 08:14:22;;;;;;;5.53;2.83;;;22.20;99.90;;;;;;5010340;28;20045;-62
2022/06/23 08:16:51;;;;;;;8.30;3.00;;;22.30;99.90;;;;;;5004994;28;20057;-63
2022/06/23 08:19:32;;;;;;;6.07;2.95;;;22.30;99.90;;;;;;5009104;28;20133;-63
2022/06/23 08:22:24;;;;;;;7.32;2.65;;;22.40;99.90;;;;;;5008960;28;20045;-62
2022/06/23 08:24:52;;;;;;;4.78;2.88;;;22.40;99.90;;;;;;4999382;28;20507;-62
2022/06/23 08:27:20;;;;;;;6.75;3.10;;;22.60;99.90;;;;;;4975746;28;21393;-62
2022/06/23 08:29:55;;;;;;;5.97;2.90;;;22.60;99.90;;;;;;5011585;28;20407;-62
2022/06/23 08:32:21;;;;;;;6.40;2.60;;;22.80;99.90;;;;;;5010733;28;20186;-63
2022/06/23 08:35:00;;;;;;;4.85;3.25;;;22.90;99.90;;;;;;4991974;28;20046;-62
2022/06/23 08:37:28;;;;;;;9.43;2.65;;;22.90;99.90;;;;;;4991623;28;20091;-63
2022/06/23 08:40:05;;;;;;;4.32;2.20;;;22.80;99.90;;;;;;5009452;28;20041;-63
2022/06/23 08:42:40;;;;;;;5.60;2.05;;;22.90;99.90;;;;;;4993042;28;20144;-63
2022/06/23 08:45:14;;;;;;;5.63;2.10;;;23.00;99.90;;;;;;5009314;28;20041;-62
2022/06/23 08:48:05;;;;;;;6.72;2.15;;;23.10;99.90;;;;;;5011159;28;20051;-62
2022/06/23 08:50:45;;;;;;;6.28;2.15;;;23.10;99.90;;;;;;5010934;28;21378;-62
2022/06/23 08:53:28;;;;;;;5.07;1.95;;;23.30;99.90;;;;;;5012333;28;20503;-63
2022/06/23 08:56:02;;;;;;;3.97;2.30;;;23.00;99.90;;;;;;5010229;28;20069;-62
2022/06/23 08:58:39;;;;;;;3.25;1.90;;;23.30;99.90;;;;;;5010265;28;20049;-63
2022/06/23 09:01:08;;;;;;;7.15;2.33;;;23.40;99.90;;;;;;5009040;28;20080;-63
2022/06/23 09:03:51;;;;;;;4.18;1.73;;;23.60;99.90;;;;;;5010187;28;21657;-63
2022/06/23 09:06:22;;;;;;;5.38;1.92;;;23.40;99.90;;;;;;4993186;28;20045;-62
2022/06/23 09:09:07;;;;;;;7.13;2.20;;;23.50;99.90;;;;;;5010361;28;20123;-63
2022/06/23 09:12:07;;;;;;;3.92;2.05;;;23.70;99.90;;;;;;5012262;28;20053;-63
2022/06/23 09:14:51;;;;;;;6.32;2.53;;;23.90;99.90;;;;;;5012109;28;20484;-62
2022/06/23 09:17:32;;;;;;;4.88;1.70;;;23.70;99.90;;;;;;4994334;28;20589;-62
2022/06/23 09:20:16;;;;;;;7.32;1.40;;;24.00;99.90;;;;;;4994308;28;20057;-62
2022/06/23 09:23:10;;;;;;;5.53;2.13;;;23.80;99.90;;;;;;5010571;28;20061;-63
2022/06/23 09:25:52;;;;;;;3.88;2.05;;;24.10;99.90;;;;;;5009550;28;20414;-64
2022/06/23 09:28:24;;;;;;;5.43;2.20;;;25.00;99.90;;;;;;4991314;28;20132;-65
2022/06/23 09:30:52;;;;;;;3.30;2.35;;;24.40;99.90;;;;;;4990696;28;20087;-63
2022/06/23 09:33:18;;;;;;;4.47;1.83;;;24.20;99.90;;;;;;4990785;28;20053;-64
2022/06/23 09:36:07;;;;;;;4.63;2.20;;;24.40;99.90;;;;;;4990198;28;20045;-64
2022/06/23 09:39:08;;;;;;;3.97;2.42;;;24.60;99.90;;;;;;5009543;28;20068;-64
2022/06/23 09:42:10;;;;;;;6.93;2.08;;;26.30;99.90;;;;;;5006761;28;20045;-65
2022/06/23 09:45:17;;;;;;;3.92;1.90;;;24.70;99.90;;;;;;5007341;28;20604;-66
2022/06/23 09:47:51;;;;;;;5.35;1.55;;;25.00;99.90;;;;;;4991040;28;20049;-65
2022/06/23 09:50:45;;;;;;;4.82;2.10;;;24.70;99.90;;;;;;4990991;28;20112;-64
2022/06/23 09:53:40;;;;;;;9.43;2.38;;;24.90;99.90;;;;;;5008925;28;20052;-64
2022/06/23 09:56:28;;;;;;;5.95;2.85;;;25.10;99.90;;;;;;4990273;28;20062;-64
2022/06/23 09:59:12;;;;;;;6.65;2.08;;;24.80;99.90;;;;;;4991387;28;20057;-64
2022/06/23 10:01:48;;;;;;;5.25;2.45;;;25.20;99.90;;;;;;4997095;28;20050;-64
2022/06/23 10:04:52;;;;;;;5.78;2.30;;;25.20;99.90;;;;;;4966709;28;20818;-65
2022/06/23 10:07:58;;;;;;;5.20;2.20;;;25.30;99.90;;;;;;4983065;28;21906;-64
2022/06/23 10:10:43;;;;;;;;;;;25.40;99.90;;;;;;4963663;28;20082;-64
2022/06/23 10:13:33;;;;;;;7.60;2.38;;;25.60;99.90;;;;;;4971219;28;19925;-64
2022/06/23 10:16:28;;;;;;;4.85;1.88;;;25.60;99.90;;;;;;4973054;28;20054;-65
2022/06/23 10:19:12;;;;;;;5.47;2.10;;;25.40;99.90;;;;;;4961557;28;20552;-65
2022/06/23 10:21:53;;;;;;;7.45;2.05;;;25.30;99.90;;;;;;4950947;28;20081;-64
2022/06/23 10:24:37;;;;;;;4.18;1.70;;;25.20;99.90;;;;;;4967804;28;20447;-65
2022/06/23 10:27:56;;;;;;;5.32;2.17;;;25.90;99.90;;;;;;4967982;28;20050;-64
2022/06/23 10:30:48;;;;;;;4.18;1.55;;;25.70;99.90;;;;;;4911355;29;20082;-64
2022/06/23 10:33:44;;;;;;;8.48;2.13;;;25.90;99.90;;;;;;4911387;29;20063;-65
2022/06/23 10:36:16;;;;;;;5.93;2.60;;;25.80;99.90;;;;;;4962990;28;20062;-66
2022/06/23 10:38:56;;;;;;;4.55;2.08;;;26.10;99.90;;;;;;4968364;28;20561;-63
2022/06/23 10:41:40;;;;;;;3.92;1.73;;;26.20;99.90;;;;;;4967401;28;20056;-65
2022/06/23 10:44:27;;;;;;;5.30;2.25;;;26.20;99.90;;;;;;4965800;28;20100;-66
2022/06/23 10:47:24;;;;;;;6.68;2.97;;;26.20;99.90;;;;;;4964614;28;20046;-63
2022/06/23 10:49:55;;;;;;;5.57;2.10;;;26.30;99.90;;;;;;4966589;28;20049;-64
2022/06/23 10:52:42;;;;;;;8.43;2.40;;;26.20;99.90;;;;;;4967528;28;20054;-65
2022/06/23 10:55:18;;;;;;;5.30;1.80;;;26.30;99.90;;;;;;4967417;28;20046;-64
2022/06/23 10:57:56;;;;;;;6.07;2.17;;;26.60;99.90;;;;;;4966283;28;20061;-65
2022/06/23 11:00:33;;;;;;;6.13;2.40;;;26.20;99.90;;;;;;4969242;28;20061;-64
2022/06/23 11:03:27;;;;;;;5.20;2.60;;;26.40;99.90;;;;;;5001492;28;20875;-64
2022/06/23 11:06:19;;;;;;;5.70;2.22;;;26.60;99.90;;;;;;4990820;28;20057;-63
2022/06/23 11:09:13;;;;;;;4.38;2.00;;;26.60;99.90;;;;;;4990963;28;20464;-64
2022/06/23 11:11:39;;;;;;;5.95;1.85;;;26.60;99.90;;;;;;4994569;28;20069;-65
2022/06/23 11:14:19;;;;;;;6.53;2.42;;;26.70;99.90;;;;;;4990115;28;20152;-64
2022/06/23 11:17:01;;;;;;;5.32;2.38;;;26.80;99.90;;;;;;5007243;28;20041;-65
2022/06/23 11:20:05;;;;;;;3.78;2.10;;;26.90;99.90;;;;;;5007217;28;20081;-65
2022/06/23 11:22:47;;;;;;;5.93;2.03;;;26.60;99.90;;;;;;4988969;28;20085;-64
2022/06/23 11:25:38;;;;;;;5.47;2.63;;;26.60;99.90;;;;;;4991503;28;20619;-64
2022/06/23 11:28:38;;;;;;;6.35;2.00;;;27.00;99.90;;;;;;4987033;28;20046;-64
2022/06/23 11:31:13;;;;;;;7.03;2.42;;;27.00;99.90;;;;;;4959822;28;20068;-64
2022/06/23 11:34:00;;;;;;;11.32;2.45;;;27.20;99.90;;;;;;4990062;28;20073;-64
2022/06/23 11:36:25;;;;;;;6.78;2.25;;;27.20;99.90;;;;;;4989615;28;20053;-64
2022/06/23 11:38:51;;;;;;;4.00;2.17;;;27.40;99.90;;;;;;4991358;28;20103;-64
2022/06/23 11:41:35;;;;;;;6.97;2.03;;;27.30;99.90;;;;;;5010452;28;20137;-64
2022/06/23 11:44:44;;;;;;;5.00;1.95;;;27.30;99.90;;;;;;4994829;28;20049;-63
2022/06/23 11:47:38;;;;;;;5.57;1.92;;;27.30;99.90;;;;;;4990869;28;20046;-65
2022/06/23 11:50:10;;;;;;;6.97;2.07;;;27.10;99.90;;;;;;5011724;28;20046;-64
2022/06/23 11:52:51;;;;;;;5.15;1.70;;;27.30;99.90;;;;;;5009527;28;20284;-65
2022/06/23 11:55:36;;;;;;;3.83;1.95;;;27.50;99.90;;;;;;5010724;28;20055;-64
2022/06/23 11:58:21;;;;;;;3.45;1.50;;;27.50;99.90;;;;;;5008229;28;20057;-64
2022/06/23 12:01:07;;;;;;;4.70;1.27;;;27.80;99.90;;;;;;4991277;28;20071;-64
2022/06/23 12:03:48;;;;;;;3.90;1.50;;;27.60;99.90;;;;;;5008894;28;20145;-64
2022/06/23 12:06:22;;;;;;;13.20;1.58;;;29.20;99.90;;;;;;5010213;28;21389;-64
2022/06/23 12:09:12;;;;;;;3.40;1.25;;;29.30;99.90;;;;;;5009983;28;20068;-64
2022/06/23 12:11:38;;;;;;;2.78;1.67;;;28.00;99.90;;;;;;4992705;28;20075;-63
2022/06/23 12:14:08;;;;;;;4.03;1.70;;;28.10;99.90;;;;;;4992823;28;20628;-64
2022/06/23 12:16:40;;;;;;;5.35;1.75;;;28.00;99.90;;;;;;5006668;28;20052;-64
2022/06/23 12:19:14;;;;;;;5.82;1.77;;;27.90;99.90;;;;;;4991133;28;20054;-65
2022/06/23 12:22:03;;;;;;;6.55;1.42;;;28.50;99.90;;;;;;5007619;28;20056;-64
2022/06/23 12:25:03;;;;;;;5.40;1.33;;;28.30;99.90;;;;;;4991848;28;20537;-64
2022/06/23 12:27:46;;;;;;;3.88;1.65;;;27.90;99.90;;;;;;5010477;28;20068;-64
2022/06/23 12:30:18;;;;;;;8.38;1.95;;;27.70;99.90;;;;;;4973977;28;20041;-64
2022/06/23 12:33:20;;;;;;;3.97;1.48;;;28.20;99.90;;;;;;4989388;28;20045;-65
2022/06/23 12:36:20;;;;;;;3.55;1.10;;;28.40;99.90;;;;;;5007552;28;20049;-64
2022/06/23 12:38:59;;;;;;;3.28;1.15;;;28.20;99.90;;;;;;5007296;28;20050;-65
2022/06/23 12:41:31;;;;;;;4.60;1.40;;;28.10;99.90;;;;;;5004858;28;20211;-64
2022/06/23 12:44:18;;;;;;;6.05;1.70;;;29.10;99.90;;;;;;5007511;28;20049;-65
2022/06/23 12:47:06;;;;;;;5.60;1.77;;;28.40;99.90;;;;;;5005906;28;20050;-65
2022/06/23 12:49:40;;;;;;;6.38;1.67;;;28.40;99.90;;;;;;4989698;28;20045;-65
2022/06/23 12:52:27;;;;;;;2.78;1.65;;;28.40;99.90;;;;;;4972563;28;20053;-64
2022/06/23 12:54:58;;;;;;;2.63;1.35;;;28.50;99.90;;;;;;4988490;28;20057;-64
2022/06/23 12:57:47;;;;;;;4.82;1.40;;;28.60;99.90;;;;;;5007325;28;20415;-64
2022/06/23 13:00:26;;;;;;;2.35;1.55;;;28.20;99.90;;;;;;5007921;28;21299;-64
2022/06/23 13:02:56;;;;;;;7.82;1.83;;;28.40;99.90;;;;;;5006707;28;20049;-64
2022/06/23 13:05:37;;;;;;;5.05;1.25;;;30.10;99.90;;;;;;4989503;28;20059;-64
2022/06/23 13:08:28;;;;;;;6.10;1.50;;;30.10;99.90;;;;;;5008170;28;21375;-64
2022/06/23 13:11:18;;;;;;;3.35;1.42;;;28.60;99.90;;;;;;4990213;28;20069;-64
2022/06/23 13:14:15;;;;;;;4.10;1.45;;;28.90;99.90;;;;;;5007318;28;20872;-64
2022/06/23 13:17:05;;;;;;;4.82;1.23;;;28.90;99.90;;;;;;4989859;28;20148;-64
2022/06/23 13:19:47;;;;;;;4.07;1.20;;;28.70;99.90;;;;;;5008402;28;20045;-64
2022/06/23 13:22:12;;;;;;;6.30;1.48;;;30.40;99.90;;;;;;4990361;28;20056;-64
2022/06/23 13:24:43;;;;;;;3.70;1.20;;;30.30;99.90;;;;;;5009337;28;20040;-63
2022/06/23 13:27:20;;;;;;;3.05;1.40;;;29.00;99.90;;;;;;4991854;28;20761;-63
2022/06/23 13:29:57;;;;;;;3.50;1.55;;;28.90;99.90;;;;;;4989729;28;20041;-65
2022/06/23 13:32:30;;;;;;;4.20;1.50;;;28.90;99.90;;;;;;4991662;28;20049;-63
2022/06/23 13:35:14;;;;;;;3.70;1.38;;;28.80;99.90;;;;;;4989986;28;20042;-63
2022/06/23 13:37:56;;;;;;;4.55;1.52;;;30.30;99.90;;;;;;4989093;28;20132;-65
2022/06/23 13:40:36;;;;;;;2.88;1.20;;;28.70;99.90;;;;;;4989703;28;20053;-65
2022/06/23 13:43:31;;;;;;;5.00;1.27;;;30.00;99.90;;;;;;4987884;28;20090;-66
2022/06/23 13:46:16;;;;;;;3.90;1.60;;;29.00;99.90;;;;;;5008235;28;20069;-65
2022/06/23 13:48:47;;;;;;;2.88;1.02;;;29.10;99.90;;;;;;4990088;28;20760;-64
2022/06/23 13:51:34;;;;;;;4.53;1.20;;;29.30;99.90;;;;;;5008533;28;20050;-65
2022/06/23 13:54:26;;;;;;;4.65;1.40;;;29.50;99.70;;;;;;4990214;28;20056;-65
2022/06/23 13:57:18;;;;;;;3.35;1.48;;;29.40;99.90;;;;;;5007028;28;20096;-66
2022/06/23 14:00:07;;;;;;;2.38;1.25;;;29.40;99.90;;;;;;4990594;28;20049;-66